Zulu, Indiana
Current Conditions -  °F | °C
As of 9:54 AM on Friday 19 Dec 2014 (Local Time) from KFWA Reporting Station
Haze Haze  
Wind Chill: 22°   Ceiling: 3300
Heat Index: 28°   Visibility: 6mi
Dew Point: 23°   Wind: 6mph
Humidity: 81%   Direction: 260°W
Pressure: 30.28"   Gusts: NA
Location:  40.9863°N, 84.8797°W
Report Text: KFWA 191454Z 26005KT 6SM HZ BKN033 M02/M05 A3028 RMK AO2 SLP264 T10221050 53004
Loading
Personal Weather Stations






























Interactive Weather Map New forecast layout! Learn more

10-Day Weather Forecast

Advertisements
Track Severe Weather on mobile